Eems Dover — PBYV — position and weather

sailwx.info

Track history (hours):
 
Tides and Currents Weather Stations Pressure Air Temp Water Temp Dewpoint Dewpoint Depression Visibility Wind Speed Wind Dir Waves Ship Positions

Eems Dover

Last reported at 2018-Jun-21 13:22 UTC. Time now 2018-Jun-22 07:43 UTC.
Position N 54°59' E 020°24'.

Length 108 m; draft 5.7 m.

Type: Cargo ship. MMSI: 245547000.

Date/timePositionNaut miles runAvg speedWind from/ knotsBaromVisibWave heightAir tempDewpointWater temp
2018-Jun-21 13:22N 54°59' E 020°24'0 0.0
2018-Jun-21 13:00N 54°59' E 020°24'0 0.1
2018-Jun-21 12:29N 54°59' E 020°23'0 0.0
2018-Jun-21 03:10N 54°59' E 020°23'0 0.0
2018-Jun-21 02:59N 54°59' E 020°23'0 0.0
2018-Jun-21 02:02N 54°59' E 020°23'0 0.0
2018-Jun-21 01:58N 54°59' E 020°23'0 0.0
2018-Jun-21 01:29N 54°59' E 020°23'1 0.1
2018-Jun-20 16:24N 54°59' E 020°22'0 0.0
2018-Jun-20 09:35N 54°59' E 020°22'1 0.0
2018-Jun-19 05:11N 54°59' E 020°20'0 0.0
2018-Jun-19 05:00N 54°59' E 020°20'0 0.0
2018-Jun-19 04:30N 54°59' E 020°20'0 0.0
2018-Jun-19 04:00N 54°59' E 020°20'0 0.0
2018-Jun-19 03:29N 54°59' E 020°20'0 0.0
2018-Jun-19 03:00N 54°59' E 020°20'0 0.0
2018-Jun-19 02:30N 54°59' E 020°20'1 0.1
2018-Jun-18 17:14N 54°59' E 020°22'0 0.0
2018-Jun-18 16:51N 54°59' E 020°22'0 0.0
2018-Jun-18 09:10N 54°59' E 020°22'0 0.0
2018-Jun-18 08:55N 54°59' E 020°22'0 0.0
2018-Jun-18 08:28N 54°59' E 020°22'0 0.0
2018-Jun-18 07:39N 54°59' E 020°22'0 0.0
2018-Jun-18 07:27N 54°59' E 020°22'0 0.0
2018-Jun-18 07:00N 54°59' E 020°22'0 0.0
2018-Jun-18 04:57N 54°59' E 020°22'0 0.0
2018-Jun-18 03:51N 54°59' E 020°22'0 0.0
2018-Jun-18 03:30N 54°59' E 020°22'0 0.0
2018-Jun-18 03:00N 54°59' E 020°22'0 0.0
2018-Jun-18 02:30N 54°59' E 020°22'0 0.0
2018-Jun-18 01:57N 54°59' E 020°22'0 0.0
2018-Jun-18 01:24N 54°59' E 020°22'0 0.0
2018-Jun-18 01:00N 54°59' E 020°22'0 0.0
2018-Jun-18 00:17N 54°59' E 020°22'0 0.0
2018-Jun-17 23:59N 54°59' E 020°22'0 0.0
2018-Jun-17 23:29N 54°59' E 020°22'0 0.0
2018-Jun-17 22:58N 54°59' E 020°22'0 0.0
2018-Jun-17 22:27N 54°59' E 020°22'1 0.4
2018-Jun-17 20:54N 54°59' E 020°23'0 0.0
2018-Jun-17 08:47N 54°59' E 020°23'0 0.0
2018-Jun-17 07:37N 54°59' E 020°23'0 0.0
2018-Jun-17 07:31N 54°59' E 020°23'0 0.0
2018-Jun-17 07:00N 54°59' E 020°23'0 0.0
2018-Jun-17 06:30N 54°59' E 020°23'0 0.0
2018-Jun-17 05:59N 54°59' E 020°23'0 0.0
2018-Jun-17 05:30N 54°59' E 020°23'0 0.0
2018-Jun-17 05:00N 54°59' E 020°23'0 0.0
2018-Jun-17 04:30N 54°59' E 020°23'0 0.0
2018-Jun-17 04:00N 54°59' E 020°23'0 0.0
2018-Jun-17 03:30N 54°59' E 020°23'0 0.0
2018-Jun-17 03:00N 54°59' E 020°23'0 0.0
2018-Jun-17 02:30N 54°59' E 020°23'0 0.0
2018-Jun-17 02:00N 54°59' E 020°23'0 0.0
2018-Jun-17 01:30N 54°59' E 020°23'0 0.0
2018-Jun-17 01:00N 54°59' E 020°23'0 0.0
2018-Jun-17 00:30N 54°59' E 020°23'0 0.0
2018-Jun-16 23:59N 54°59' E 020°23'0 0.2
2018-Jun-16 23:30N 54°59' E 020°23'0 0.6
2018-Jun-16 22:50N 54°59' E 020°23'0 0.0
2018-Jun-16 22:30N 54°59' E 020°23'0 0.0
2018-Jun-16 22:00N 54°59' E 020°23'0 0.6
2018-Jun-16 21:24N 54°59' E 020°22'0 0.7
2018-Jun-16 21:00N 54°58' E 020°22'0 0.6
2018-Jun-16 20:29N 54°58' E 020°22'1 0.7
2018-Jun-16 19:49N 54°58' E 020°23'0 0.0
2018-Jun-16 19:30N 54°58' E 020°23'0 0.0
2018-Jun-16 18:56N 54°58' E 020°23'0 0.0
2018-Jun-16 18:30N 54°58' E 020°23'0 0.0
2018-Jun-16 17:47N 54°58' E 020°23'0 0.4
2018-Jun-16 17:29N 54°58' E 020°23'1 2.7
2018-Jun-16 17:00N 54°58' E 020°20'0 0.0
2018-Jun-16 16:17N 54°58' E 020°20'0 0.0
2018-Jun-16 15:56N 54°58' E 020°20'1 0.2
2018-Jun-16 13:15N 54°58' E 020°20'0 0.0
2018-Jun-16 12:57N 54°58' E 020°20'0 0.0
2018-Jun-16 12:28N 54°58' E 020°20'0 0.2
2018-Jun-16 11:53N 54°58' E 020°20'0 0.0
2018-Jun-16 08:04N 54°58' E 020°20'0 0.0
2018-Jun-16 07:57N 54°58' E 020°20'0 0.0
2018-Jun-16 06:55N 54°58' E 020°20'1 0.1
2018-Jun-16 02:11N 54°58' E 020°20'0 0.0
2018-Jun-16 01:10N 54°58' E 020°20'0 0.0
2018-Jun-16 00:58N 54°58' E 020°20'0 0.0
2018-Jun-16 00:25N 54°58' E 020°20'0 0.0
2018-Jun-15 23:58N 54°58' E 020°20'0 0.0
2018-Jun-15 23:30N 54°58' E 020°20'0 0.0
2018-Jun-15 22:57N 54°58' E 020°20'0 0.0
2018-Jun-15 22:30N 54°58' E 020°20'0 0.0
2018-Jun-15 21:55N 54°58' E 020°20'0 0.0
2018-Jun-15 21:30N 54°58' E 020°20'0 0.0
2018-Jun-15 18:36N 54°58' E 020°20'0 0.0
2018-Jun-15 18:22N 54°58' E 020°20'0 0.0
2018-Jun-15 16:31N 54°58' E 020°20'0 0.0
2018-Jun-15 14:52N 54°58' E 020°20'0 0.0
2018-Jun-15 02:45N 54°58' E 020°20'0 0.0
2018-Jun-15 02:21N 54°58' E 020°20'  
Track history (hours):
 
Tides and Currents Weather Stations Pressure Air Temp Water Temp Dewpoint Dewpoint Depression Visibility Wind Speed Wind Dir Waves Ship Positions

Eems Dover

Last reported at 2018-Jun-21 13:22 UTC. Time now 2018-Jun-22 07:43 UTC.
Position N 54°59' E 020°24'.

Length 108 m; draft 5.7 m.

Type: Cargo ship. MMSI: 245547000.

Date/timePositionNaut miles runAvg speedWind from/ knotsBaromVisibWave heightAir tempDewpointWater temp
2018-Jun-21 13:22N 54°59' E 020°24'0 0.0
2018-Jun-21 13:00N 54°59' E 020°24'0 0.1
2018-Jun-21 12:29N 54°59' E 020°23'0 0.0
2018-Jun-21 03:10N 54°59' E 020°23'0 0.0
2018-Jun-21 02:59N 54°59' E 020°23'0 0.0
2018-Jun-21 02:02N 54°59' E 020°23'0 0.0
2018-Jun-21 01:58N 54°59' E 020°23'0 0.0
2018-Jun-21 01:29N 54°59' E 020°23'1 0.1
2018-Jun-20 16:24N 54°59' E 020°22'0 0.0
2018-Jun-20 09:35N 54°59' E 020°22'1 0.0
2018-Jun-19 05:11N 54°59' E 020°20'0 0.0
2018-Jun-19 05:00N 54°59' E 020°20'0 0.0
2018-Jun-19 04:30N 54°59' E 020°20'0 0.0
2018-Jun-19 04:00N 54°59' E 020°20'0 0.0
2018-Jun-19 03:29N 54°59' E 020°20'0 0.0
2018-Jun-19 03:00N 54°59' E 020°20'0 0.0
2018-Jun-19 02:30N 54°59' E 020°20'1 0.1
2018-Jun-18 17:14N 54°59' E 020°22'0 0.0
2018-Jun-18 16:51N 54°59' E 020°22'0 0.0
2018-Jun-18 09:10N 54°59' E 020°22'0 0.0
2018-Jun-18 08:55N 54°59' E 020°22'0 0.0
2018-Jun-18 08:28N 54°59' E 020°22'0 0.0
2018-Jun-18 07:39N 54°59' E 020°22'0 0.0
2018-Jun-18 07:27N 54°59' E 020°22'0 0.0
2018-Jun-18 07:00N 54°59' E 020°22'0 0.0
2018-Jun-18 04:57N 54°59' E 020°22'0 0.0
2018-Jun-18 03:51N 54°59' E 020°22'0 0.0
2018-Jun-18 03:30N 54°59' E 020°22'0 0.0
2018-Jun-18 03:00N 54°59' E 020°22'0 0.0
2018-Jun-18 02:30N 54°59' E 020°22'0 0.0
2018-Jun-18 01:57N 54°59' E 020°22'0 0.0
2018-Jun-18 01:24N 54°59' E 020°22'0 0.0
2018-Jun-18 01:00N 54°59' E 020°22'0 0.0
2018-Jun-18 00:17N 54°59' E 020°22'0 0.0
2018-Jun-17 23:59N 54°59' E 020°22'0 0.0
2018-Jun-17 23:29N 54°59' E 020°22'0 0.0
2018-Jun-17 22:58N 54°59' E 020°22'0 0.0
2018-Jun-17 22:27N 54°59' E 020°22'1 0.4
2018-Jun-17 20:54N 54°59' E 020°23'0 0.0
2018-Jun-17 08:47N 54°59' E 020°23'0 0.0
2018-Jun-17 07:37N 54°59' E 020°23'0 0.0
2018-Jun-17 07:31N 54°59' E 020°23'0 0.0
2018-Jun-17 07:00N 54°59' E 020°23'0 0.0
2018-Jun-17 06:30N 54°59' E 020°23'0 0.0
2018-Jun-17 05:59N 54°59' E 020°23'0 0.0
2018-Jun-17 05:30N 54°59' E 020°23'0 0.0
2018-Jun-17 05:00N 54°59' E 020°23'0 0.0
2018-Jun-17 04:30N 54°59' E 020°23'0 0.0
2018-Jun-17 04:00N 54°59' E 020°23'0 0.0
2018-Jun-17 03:30N 54°59' E 020°23'0 0.0
2018-Jun-17 03:00N 54°59' E 020°23'0 0.0
2018-Jun-17 02:30N 54°59' E 020°23'0 0.0
2018-Jun-17 02:00N 54°59' E 020°23'0 0.0
2018-Jun-17 01:30N 54°59' E 020°23'0 0.0
2018-Jun-17 01:00N 54°59' E 020°23'0 0.0
2018-Jun-17 00:30N 54°59' E 020°23'0 0.0
2018-Jun-16 23:59N 54°59' E 020°23'0 0.2
2018-Jun-16 23:30N 54°59' E 020°23'0 0.6
2018-Jun-16 22:50N 54°59' E 020°23'0 0.0
2018-Jun-16 22:30N 54°59' E 020°23'0 0.0
2018-Jun-16 22:00N 54°59' E 020°23'0 0.6
2018-Jun-16 21:24N 54°59' E 020°22'0 0.7
2018-Jun-16 21:00N 54°58' E 020°22'0 0.6
2018-Jun-16 20:29N 54°58' E 020°22'1 0.7
2018-Jun-16 19:49N 54°58' E 020°23'0 0.0
2018-Jun-16 19:30N 54°58' E 020°23'0 0.0
2018-Jun-16 18:56N 54°58' E 020°23'0 0.0
2018-Jun-16 18:30N 54°58' E 020°23'0 0.0
2018-Jun-16 17:47N 54°58' E 020°23'0 0.4
2018-Jun-16 17:29N 54°58' E 020°23'1 2.7
2018-Jun-16 17:00N 54°58' E 020°20'0 0.0
2018-Jun-16 16:17N 54°58' E 020°20'0 0.0
2018-Jun-16 15:56N 54°58' E 020°20'1 0.2
2018-Jun-16 13:15N 54°58' E 020°20'0 0.0
2018-Jun-16 12:57N 54°58' E 020°20'0 0.0
2018-Jun-16 12:28N 54°58' E 020°20'0 0.2
2018-Jun-16 11:53N 54°58' E 020°20'0 0.0
2018-Jun-16 08:04N 54°58' E 020°20'0 0.0
2018-Jun-16 07:57N 54°58' E 020°20'0 0.0
2018-Jun-16 06:55N 54°58' E 020°20'1 0.1
2018-Jun-16 02:11N 54°58' E 020°20'0 0.0
2018-Jun-16 01:10N 54°58' E 020°20'0 0.0
2018-Jun-16 00:58N 54°58' E 020°20'0 0.0
2018-Jun-16 00:25N 54°58' E 020°20'0 0.0
2018-Jun-15 23:58N 54°58' E 020°20'0 0.0
2018-Jun-15 23:30N 54°58' E 020°20'0 0.0
2018-Jun-15 22:57N 54°58' E 020°20'0 0.0
2018-Jun-15 22:30N 54°58' E 020°20'0 0.0
2018-Jun-15 21:55N 54°58' E 020°20'0 0.0
2018-Jun-15 21:30N 54°58' E 020°20'0 0.0
2018-Jun-15 18:36N 54°58' E 020°20'0 0.0
2018-Jun-15 18:22N 54°58' E 020°20'0 0.0
2018-Jun-15 16:31N 54°58' E 020°20'0 0.0
2018-Jun-15 14:52N 54°58' E 020°20'0 0.0
2018-Jun-15 02:45N 54°58' E 020°20'0 0.0
2018-Jun-15 02:21N 54°58' E 020°20'  

Dump ship's entire track history